Time;durP1;ratioP1;P1;durP2;ratioP2;P2;SDS_P1;SDS_P2;PMS_P1;PMS_P2;Temp;Humidity;BMP_temperature;BMP_pressure;BME280_temperature;BME280_humidity;BME280_pressure;Samples;Min_cycle;Max_cycle;Signal;HPM_P1;HPM_P2
2021/03/31 00:00:21;;;;;;;6.63;3.83;;;8.30;99.90;;;;;;4902191;28;20493;-93
2021/03/31 00:02:50;;;;;;;6.47;3.93;;;8.20;99.90;;;;;;4970457;28;21054;-93
2021/03/31 00:05:16;;;;;;;6.33;3.37;;;;;;;;;;4973633;28;20450;-93
2021/03/31 00:07:43;;;;;;;3.70;3.07;;;;;;;;;;4972984;28;20457;-94
2021/03/31 00:10:16;;;;;;;4.80;3.70;;;8.20;99.90;;;;;;4973782;28;20442;-93
2021/03/31 00:12:43;;;;;;;4.63;3.90;;;8.20;99.90;;;;;;4972657;28;20454;-92
2021/03/31 00:15:10;;;;;;;6.77;4.10;;;8.20;99.90;;;;;;4974790;28;20442;-94
2021/03/31 00:17:37;;;;;;;4.77;3.80;;;;;;;;;;4989777;28;20487;-91
2021/03/31 00:20:04;;;;;;;6.03;4.00;;;8.10;99.90;;;;;;5033122;28;20446;-93
2021/03/31 00:22:31;;;;;;;5.00;3.83;;;;;;;;;;5034347;28;20478;-93
2021/03/31 00:24:58;;;;;;;7.70;4.70;;;;;;;;;;5032854;28;21046;-92
2021/03/31 00:27:24;;;;;;;8.47;4.10;;;;;;;;;;5034476;28;20464;-92
2021/03/31 00:29:51;;;;;;;8.13;4.00;;;8.00;99.90;;;;;;5033751;28;20518;-93
2021/03/31 00:32:18;;;;;;;9.70;4.10;;;;;;;;;;5029829;28;20440;-92
2021/03/31 00:34:44;;;;;;;7.33;4.20;;;;;;;;;;5034568;28;20517;-93
2021/03/31 00:37:11;;;;;;;11.40;4.50;;;;;;;;;;5033767;28;20491;-92
2021/03/31 00:39:38;;;;;;;8.60;4.30;;;;;;;;;;5034345;28;20485;-94
2021/03/31 00:42:04;;;;;;;7.33;4.17;;;7.90;99.90;;;;;;5033811;28;20447;-93
2021/03/31 00:44:31;;;;;;;6.03;4.07;;;;;;;;;;5027184;28;20444;-92
2021/03/31 00:46:58;;;;;;;6.20;4.23;;;7.90;99.90;;;;;;5032602;28;20439;-93
2021/03/31 00:49:25;;;;;;;7.20;4.63;;;;;;;;;;5031636;28;20853;-93
2021/03/31 00:51:51;;;;;;;5.30;4.03;;;;;;;;;;5034958;28;20443;-93
2021/03/31 00:54:18;;;;;;;8.27;4.20;;;;;;;;;;5035641;28;20562;-93
2021/03/31 00:56:45;;;;;;;9.87;4.43;;;;;;;;;;5033314;28;20476;-93
2021/03/31 00:59:11;;;;;;;6.90;4.20;;;;;;;;;;5028301;28;20518;-92
2021/03/31 01:01:38;;;;;;;6.60;4.33;;;;;;;;;;5032311;28;20492;-92
2021/03/31 01:04:06;;;;;;;7.00;4.40;;;7.80;99.90;;;;;;5029770;28;20629;-92
2021/03/31 01:06:32;;;;;;;8.33;4.43;;;;;;;;;;5033855;28;20457;-93
2021/03/31 01:08:59;;;;;;;9.40;5.07;;;;;;;;;;5033957;28;20432;-94
2021/03/31 01:11:32;;;;;;;7.60;4.70;;;7.80;99.90;;;;;;5034012;28;20447;-93
2021/03/31 01:14:07;;;;;;;8.03;4.70;;;7.60;99.90;;;;;;5030618;28;20435;-92
2021/03/31 01:16:42;;;;;;;8.30;4.43;;;7.60;99.90;;;;;;5033660;28;20554;-92
2021/03/31 01:19:28;;;;;;;7.10;4.67;;;7.60;99.90;;;;;;5032670;28;20452;-92
2021/03/31 01:22:25;;;;;;;5.70;4.37;;;8.20;99.90;;;;;;4992328;28;20484;-93
2021/03/31 01:25:13;;;;;;;8.87;5.00;;;7.40;99.90;;;;;;4989670;28;21008;-93
2021/03/31 01:28:02;;;;;;;8.23;4.37;;;7.40;99.90;;;;;;4992274;28;20441;-91
2021/03/31 01:30:36;;;;;;;7.87;4.27;;;7.40;99.90;;;;;;4985381;28;20453;-94
2021/03/31 01:33:23;;;;;;;5.97;4.73;;;7.40;99.90;;;;;;4990710;28;20499;-92
2021/03/31 01:35:52;;;;;;;6.63;4.20;;;7.40;99.90;;;;;;4989751;28;20426;-92
2021/03/31 01:38:22;;;;;;;6.80;4.50;;;7.30;99.90;;;;;;4993253;28;20492;-94
2021/03/31 01:40:52;;;;;;;6.77;4.80;;;7.30;99.90;;;;;;4992256;28;20449;-94
2021/03/31 01:43:22;;;;;;;8.13;4.83;;;7.30;99.90;;;;;;4992984;28;20453;-90
2021/03/31 01:45:55;;;;;;;5.97;4.50;;;7.20;99.90;;;;;;4991624;28;20460;-93
2021/03/31 01:48:26;;;;;;;7.87;4.90;;;7.20;99.90;;;;;;4989392;28;20445;-90
2021/03/31 01:50:57;;;;;;;10.37;4.77;;;7.20;99.90;;;;;;4991244;28;20437;-91
2021/03/31 01:53:24;;;;;;;7.17;4.13;;;7.20;99.90;;;;;;5021782;28;20958;-92
2021/03/31 01:55:53;;;;;;;6.03;4.00;;;7.10;99.90;;;;;;4995189;28;20501;-90
2021/03/31 01:58:20;;;;;;;7.83;4.30;;;7.10;99.90;;;;;;5030498;28;20483;-92
2021/03/31 02:00:49;;;;;;;5.97;4.73;;;7.00;99.90;;;;;;5033195;28;20447;-91
2021/03/31 02:03:17;;;;;;;6.20;5.07;;;6.80;99.90;;;;;;5029388;28;20483;-91
2021/03/31 02:05:45;;;;;;;11.70;5.20;;;;;;;;;;5032894;28;20435;-91
2021/03/31 02:08:13;;;;;;;10.40;5.13;;;6.90;99.90;;;;;;5029821;28;20915;-90
2021/03/31 02:10:40;;;;;;;6.37;4.87;;;6.90;99.90;;;;;;5028510;28;20452;-91
2021/03/31 02:13:09;;;;;;;6.07;4.87;;;6.80;99.90;;;;;;5032941;28;20431;-92
2021/03/31 02:15:36;;;;;;;11.63;4.60;;;6.80;99.90;;;;;;5027352;28;20435;-91
2021/03/31 02:18:08;;;;;;;5.90;4.93;;;6.80;99.90;;;;;;5029829;28;20487;-91
2021/03/31 02:20:38;;;;;;;8.70;5.20;;;6.80;99.90;;;;;;5047652;28;20443;-91
2021/03/31 02:23:08;;;;;;;6.97;5.27;;;6.70;99.90;;;;;;5047751;28;20439;-92
2021/03/31 02:25:38;;;;;;;7.80;4.90;;;6.80;99.90;;;;;;5051617;28;20439;-91
2021/03/31 02:28:10;;;;;;;11.10;5.30;;;6.60;99.90;;;;;;5009709;28;20919;-91
2021/03/31 02:30:39;;;;;;;6.73;5.27;;;6.80;99.90;;;;;;5002064;28;20456;-92
2021/03/31 02:33:13;;;;;;;7.63;4.67;;;6.80;99.90;;;;;;5008339;28;20484;-91
2021/03/31 02:35:44;;;;;;;8.43;5.60;;;6.70;99.90;;;;;;5000951;28;20438;-93
2021/03/31 02:38:15;;;;;;;6.77;5.23;;;6.90;99.90;;;;;;4995092;28;20500;-94
2021/03/31 02:40:46;;;;;;;6.17;4.43;;;6.80;99.90;;;;;;4992837;28;20449;-93
2021/03/31 02:43:16;;;;;;;7.03;4.83;;;6.70;99.90;;;;;;4994011;28;20445;-94
2021/03/31 02:45:45;;;;;;;8.30;5.10;;;6.70;99.90;;;;;;4993879;28;20515;-93
2021/03/31 02:48:14;;;;;;;10.27;5.30;;;6.70;99.90;;;;;;5000452;28;20459;-92
2021/03/31 02:50:42;;;;;;;10.93;4.57;;;6.60;99.90;;;;;;5032139;28;20530;-90
2021/03/31 02:53:10;;;;;;;6.80;5.17;;;6.60;99.90;;;;;;5035378;28;20442;-91
2021/03/31 02:55:38;;;;;;;7.60;4.47;;;6.60;99.90;;;;;;5033120;28;20454;-90
2021/03/31 02:58:08;;;;;;;7.60;4.70;;;6.40;99.90;;;;;;5034961;28;20483;-91
2021/03/31 03:00:34;;;;;;;9.83;4.70;;;6.50;99.90;;;;;;5034363;28;20550;-90
2021/03/31 03:03:02;;;;;;;8.53;5.00;;;6.50;99.90;;;;;;5038195;28;20451;-92
2021/03/31 03:05:29;;;;;;;6.93;4.37;;;7.00;99.90;;;;;;5035140;28;20459;-90
2021/03/31 03:07:57;;;;;;;7.30;4.70;;;6.40;99.90;;;;;;5034063;28;20444;-91
2021/03/31 03:10:24;;;;;;;7.70;5.13;;;;;;;;;;5037153;28;20456;-91
2021/03/31 03:12:57;;;;;;;8.40;5.30;;;6.40;99.90;;;;;;5037699;28;20452;-92
2021/03/31 03:15:27;;;;;;;9.50;4.93;;;6.20;99.90;;;;;;5036728;28;20455;-90
2021/03/31 03:17:54;;;;;;;10.33;5.47;;;6.40;99.90;;;;;;5034127;28;20479;-91
2021/03/31 03:20:20;;;;;;;7.00;4.47;;;6.30;99.90;;;;;;5035410;28;20448;-91
2021/03/31 03:22:50;;;;;;;6.97;4.70;;;6.30;99.90;;;;;;5037069;28;20772;-92
2021/03/31 03:25:20;;;;;;;6.30;4.77;;;6.10;99.90;;;;;;5036698;28;20450;-91
2021/03/31 03:27:47;;;;;;;7.80;4.67;;;6.30;99.90;;;;;;5044298;28;20448;-89
2021/03/31 03:30:15;;;;;;;7.17;4.90;;;6.20;99.90;;;;;;5057457;28;20473;-90
2021/03/31 03:32:46;;;;;;;8.40;4.97;;;6.30;99.90;;;;;;5057404;28;20463;-93
2021/03/31 03:35:13;;;;;;;6.40;4.47;;;6.20;99.90;;;;;;5023786;28;20432;-92
2021/03/31 03:37:42;;;;;;;9.23;5.90;;;6.20;99.90;;;;;;5055636;28;20490;-92
2021/03/31 03:40:10;;;;;;;7.23;4.43;;;6.10;99.90;;;;;;5020925;28;20463;-93
2021/03/31 03:42:37;;;;;;;5.83;5.13;;;6.10;99.90;;;;;;5057547;28;20442;-94
2021/03/31 03:45:05;;;;;;;7.13;5.40;;;6.10;99.90;;;;;;5054462;28;20584;-91
2021/03/31 03:47:32;;;;;;;7.13;5.33;;;;;;;;;;5056131;28;20447;-92
2021/03/31 03:50:00;;;;;;;9.47;5.23;;;6.20;99.90;;;;;;5037749;28;20438;-92
2021/03/31 03:52:27;;;;;;;6.50;4.77;;;;;;;;;;5033344;28;20796;-92
2021/03/31 03:54:54;;;;;;;7.53;5.17;;;6.10;99.90;;;;;;5035149;28;20436;-92
2021/03/31 03:57:25;;;;;;;7.30;4.90;;;5.70;99.90;;;;;;5032416;28;20471;-92
2021/03/31 03:59:52;;;;;;;9.50;4.90;;;6.10;99.90;;;;;;5034696;28;20446;-92
2021/03/31 04:02:18;;;;;;;7.73;4.70;;;5.60;99.90;;;;;;5032223;28;20436;-91
2021/03/31 04:04:44;;;;;;;13.33;5.37;;;5.80;99.90;;;;;;5034669;28;20439;-92
2021/03/31 04:07:12;;;;;;;10.93;4.93;;;5.20;99.90;;;;;;5033414;28;20470;-93
2021/03/31 04:09:41;;;;;;;8.40;5.03;;;5.90;99.90;;;;;;5035570;28;20447;-92
2021/03/31 04:12:09;;;;;;;10.20;5.40;;;5.90;99.90;;;;;;5029114;28;20444;-93
2021/03/31 04:14:36;;;;;;;9.27;5.63;;;5.80;99.90;;;;;;5033500;28;20447;-93
2021/03/31 04:17:05;;;;;;;7.70;4.77;;;6.00;99.90;;;;;;5033053;28;20471;-92
2021/03/31 04:19:33;;;;;;;10.80;5.60;;;6.00;99.90;;;;;;5033775;28;20451;-93
2021/03/31 04:22:00;;;;;;;7.07;5.13;;;5.50;99.90;;;;;;5029720;28;20494;-90
2021/03/31 04:24:27;;;;;;;7.60;4.93;;;5.70;99.90;;;;;;4999887;28;20957;-92
2021/03/31 04:26:55;;;;;;;8.73;4.87;;;6.20;99.90;;;;;;5030512;28;20455;-91
2021/03/31 04:29:22;;;;;;;7.63;5.07;;;;;;;;;;5034181;28;20427;-93
2021/03/31 04:31:49;;;;;;;5.93;5.10;;;;;;;;;;5032369;28;20435;-92
2021/03/31 04:34:16;;;;;;;9.53;5.50;;;5.80;99.90;;;;;;5034157;28;20479;-91
2021/03/31 04:36:43;;;;;;;7.93;5.10;;;6.00;99.90;;;;;;5034088;28;20432;-92
2021/03/31 04:39:16;;;;;;;8.33;5.00;;;5.80;99.90;;;;;;5034025;28;20448;-92
2021/03/31 04:41:43;;;;;;;8.63;5.23;;;5.80;99.90;;;;;;5033654;28;20459;-92
2021/03/31 04:44:10;;;;;;;9.70;5.27;;;5.70;99.90;;;;;;5024328;28;20432;-91
2021/03/31 04:46:36;;;;;;;8.60;5.73;;;;;;;;;;5034815;28;20956;-91
2021/03/31 04:49:03;;;;;;;9.13;5.60;;;5.60;99.90;;;;;;5035699;28;20439;-93
2021/03/31 04:51:29;;;;;;;6.57;4.73;;;5.80;99.90;;;;;;5030739;28;20860;-93
2021/03/31 04:53:56;;;;;;;10.00;6.03;;;;;;;;;;5035583;28;20470;-91
2021/03/31 04:56:56;;;;;;;7.53;5.30;;;5.80;99.90;;;;;;5042267;28;20449;-92
2021/03/31 04:59:29;;;;;;;9.97;5.60;;;6.00;99.90;;;;;;4984684;28;20449;-92
2021/03/31 05:01:56;;;;;;;9.47;6.00;;;;;;;;;;4991060;28;20438;-93
2021/03/31 05:04:23;;;;;;;15.40;5.80;;;;;;;;;;5004362;28;20445;-90
2021/03/31 05:06:49;;;;;;;8.53;5.33;;;;;;;;;;5004034;28;20444;-91
2021/03/31 05:09:18;;;;;;;10.20;5.27;;;5.80;99.90;;;;;;4998986;28;20438;-91
2021/03/31 05:11:44;;;;;;;12.50;6.33;;;;;;;;;;4993261;28;20496;-90
2021/03/31 05:14:20;;;;;;;8.43;5.53;;;5.90;99.90;;;;;;4998044;28;20444;-92
2021/03/31 05:16:49;;;;;;;8.63;5.10;;;6.00;99.90;;;;;;5004727;28;20517;-91
2021/03/31 05:19:19;;;;;;;9.10;5.73;;;6.10;99.90;;;;;;5035323;28;20439;-92
2021/03/31 05:21:48;;;;;;;8.50;5.67;;;;;;;;;;5040573;28;20474;-90
2021/03/31 05:24:17;;;;;;;10.33;6.07;;;;;;;;;;5039507;28;20450;-91
2021/03/31 05:26:44;;;;;;;11.03;6.63;;;;;;;;;;5036926;28;20440;-91
2021/03/31 05:29:13;;;;;;;11.67;6.50;;;6.30;99.90;;;;;;5044134;28;20807;-92
2021/03/31 05:31:43;;;;;;;11.13;6.90;;;;;;;;;;5042738;28;20459;-91
2021/03/31 05:34:13;;;;;;;11.10;5.83;;;;;;;;;;5043271;28;20464;-90
2021/03/31 05:36:42;;;;;;;9.43;6.10;;;6.10;99.90;;;;;;5045744;28;20439;-91
2021/03/31 05:39:20;;;;;;;10.20;5.77;;;6.50;99.90;;;;;;5040854;28;20439;-88
2021/03/31 05:41:47;;;;;;;14.23;7.10;;;;;;;;;;5046721;28;20525;-89
2021/03/31 05:44:19;;;;;;;12.50;6.40;;;;;;;;;;5050357;28;20434;-88
2021/03/31 05:46:45;;;;;;;12.60;7.03;;;;;;;;;;5046974;28;20518;-90
2021/03/31 05:49:16;;;;;;;8.10;5.73;;;6.90;99.90;;;;;;5049512;28;20472;-89
2021/03/31 05:51:43;;;;;;;9.10;5.47;;;;;;;;;;5048547;28;20489;-89
2021/03/31 05:54:09;;;;;;;11.23;6.60;;;;;;;;;;5043806;28;20439;-89
2021/03/31 05:56:37;;;;;;;8.63;6.47;;;8.90;99.90;;;;;;5063162;28;20495;-92
2021/03/31 05:59:03;;;;;;;8.67;6.27;;;8.30;99.90;;;;;;5062216;28;20477;-91
2021/03/31 06:01:31;;;;;;;8.80;5.13;;;9.10;99.90;;;;;;5059363;28;20443;-92
2021/03/31 06:03:58;;;;;;;11.00;6.83;;;9.50;99.90;;;;;;5061795;28;20438;-89
2021/03/31 06:06:25;;;;;;;10.77;6.20;;;9.10;99.90;;;;;;5061642;28;20472;-90
2021/03/31 06:08:52;;;;;;;10.33;6.80;;;;;;;;;;5061031;28;20446;-92
2021/03/31 06:11:20;;;;;;;12.33;6.30;;;;;;;;;;5037392;28;20450;-93
2021/03/31 06:13:51;;;;;;;9.57;6.33;;;9.10;99.90;;;;;;5036868;28;20455;-92
2021/03/31 06:16:30;;;;;;;7.47;6.30;;;9.30;99.90;;;;;;5038055;28;20617;-94
2021/03/31 06:18:57;;;;;;;9.90;7.80;;;9.80;99.90;;;;;;5038020;28;21081;-93
2021/03/31 06:21:25;;;;;;;8.40;6.50;;;;;;;;;;5013217;28;20539;-92
2021/03/31 06:23:58;;;;;;;11.30;7.50;;;;;;;;;;5036725;28;20459;-92
2021/03/31 06:26:27;;;;;;;14.27;7.50;;;10.80;99.90;;;;;;5036865;28;20806;-88
2021/03/31 06:28:56;;;;;;;10.93;7.80;;;11.20;99.90;;;;;;5038013;28;20440;-89
2021/03/31 06:31:27;;;;;;;12.77;7.50;;;11.10;99.90;;;;;;5039278;28;20950;-88
2021/03/31 06:33:54;;;;;;;11.80;8.17;;;11.50;99.90;;;;;;5041418;28;20498;-91
2021/03/31 06:36:34;;;;;;;19.63;8.07;;;12.40;99.90;;;;;;5041094;28;20450;-89
2021/03/31 06:39:01;;;;;;;12.23;8.23;;;;;;;;;;4973225;28;20493;-88
2021/03/31 06:41:29;;;;;;;14.43;8.33;;;11.90;99.90;;;;;;5040628;28;20451;-89
2021/03/31 06:46:52;;;;;;;10.33;7.10;;;12.30;97.00;;;;;;5056355;28;20442;-92
2021/03/31 06:49:19;;;;;;;11.70;6.30;;;;;;;;;;5018127;28;20493;-94
2021/03/31 06:51:49;;;;;;;15.43;7.67;;;12.60;99.90;;;;;;5052635;28;20450;-88
2021/03/31 06:54:17;;;;;;;19.43;8.40;;;12.40;97.10;;;;;;5044592;28;20443;-89
2021/03/31 06:56:53;;;;;;;11.90;7.10;;;12.50;97.20;;;;;;5048406;28;20435;-89
2021/03/31 06:59:31;;;;;;;10.10;6.67;;;12.40;97.40;;;;;;5042584;28;20462;-91
2021/03/31 07:01:58;;;;;;;11.13;7.80;;;12.60;95.90;;;;;;5053207;28;20447;-89
2021/03/31 07:04:31;;;;;;;9.07;7.07;;;12.70;96.00;;;;;;5044222;28;20490;-90
2021/03/31 07:07:06;;;;;;;13.37;6.87;;;13.00;95.90;;;;;;5043833;28;20450;-91
2021/03/31 07:09:33;;;;;;;8.60;7.00;;;;;;;;;;5018819;28;20795;-89
2021/03/31 07:12:03;;;;;;;10.50;7.17;;;;;;;;;;5015609;28;20460;-89
2021/03/31 07:14:30;;;;;;;11.80;7.20;;;14.70;95.20;;;;;;5022908;28;20453;-89
2021/03/31 07:16:58;;;;;;;12.20;7.27;;;15.20;99.90;;;;;;5017678;28;20449;-88
2021/03/31 07:19:29;;;;;;;13.30;7.33;;;15.70;89.20;;;;;;5020929;28;20567;-92
2021/03/31 07:21:55;;;;;;;13.73;7.47;;;16.00;87.40;;;;;;5021985;28;20467;-88
2021/03/31 07:24:23;;;;;;;14.80;7.60;;;15.60;90.00;;;;;;5017612;28;20458;-88
2021/03/31 07:26:49;;;;;;;13.77;8.10;;;;;;;;;;5013769;28;20919;-86
2021/03/31 07:29:19;;;;;;;17.87;7.90;;;16.00;86.00;;;;;;5039814;28;20434;-89
2021/03/31 07:31:48;;;;;;;11.23;7.80;;;16.60;85.40;;;;;;5036953;28;21002;-91
2021/03/31 07:34:19;;;;;;;10.73;7.53;;;16.60;85.30;;;;;;5035117;28;20510;-90
2021/03/31 07:36:48;;;;;;;19.27;8.07;;;17.10;83.50;;;;;;5033135;28;20432;-90
2021/03/31 07:39:17;;;;;;;12.23;6.70;;;17.10;97.40;;;;;;5035616;28;20491;-94
2021/03/31 07:41:45;;;;;;;9.87;6.97;;;17.60;86.50;;;;;;5035517;28;20527;-92
2021/03/31 07:44:18;;;;;;;14.93;8.03;;;17.50;90.80;;;;;;5035035;28;20443;-87
2021/03/31 07:46:47;;;;;;;11.53;6.53;;;17.90;82.20;;;;;;5038832;28;20474;-88
2021/03/31 07:49:15;;;;;;;10.37;7.93;;;18.80;76.90;;;;;;5033293;28;20447;-93
2021/03/31 07:51:55;;;;;;;18.10;8.40;;;18.90;75.90;;;;;;5033071;28;21067;-92
2021/03/31 07:54:22;;;;;;;12.17;8.50;;;19.20;70.00;;;;;;5051135;28;20533;-90
2021/03/31 07:56:50;;;;;;;11.27;8.87;;;18.40;86.20;;;;;;5055134;28;20459;-88
2021/03/31 07:59:18;;;;;;;10.33;7.20;;;18.60;73.50;;;;;;5054373;28;20486;-87
2021/03/31 08:01:50;;;;;;;10.63;8.33;;;18.10;70.40;;;;;;5053169;28;20443;-90
2021/03/31 08:04:18;;;;;;;9.70;8.60;;;18.20;78.40;;;;;;5059417;28;21036;-91
2021/03/31 08:06:46;;;;;;;10.40;8.40;;;18.00;93.30;;;;;;5052989;28;20490;-89
2021/03/31 08:09:20;;;;;;;11.80;8.70;;;18.60;67.40;;;;;;5053800;28;20529;-91
2021/03/31 08:12:00;;;;;;;10.90;8.10;;;18.60;64.00;;;;;;5038232;28;20477;-88
2021/03/31 08:14:43;;;;;;;9.83;7.93;;;18.90;92.70;;;;;;5057175;28;20512;-88
2021/03/31 08:17:11;;;;;;;18.23;7.93;;;19.10;87.20;;;;;;5056428;28;20442;-88
2021/03/31 08:19:41;;;;;;;11.80;9.10;;;19.40;65.50;;;;;;5055086;28;20463;-91
2021/03/31 08:22:23;;;;;;;10.57;9.30;;;19.20;62.90;;;;;;5053418;28;21030;-90
2021/03/31 08:24:52;;;;;;;12.87;8.07;;;19.50;61.60;;;;;;5052099;28;20485;-88
2021/03/31 08:27:21;;;;;;;10.10;8.27;;;19.60;79.30;;;;;;5058732;28;21022;-88
2021/03/31 08:29:53;;;;;;;10.73;8.17;;;19.30;61.70;;;;;;5058589;28;20451;-90
2021/03/31 08:32:20;;;;;;;10.83;7.80;;;;;;;;;;5057006;28;20517;-92
2021/03/31 08:34:47;;;;;;;10.03;7.23;;;19.60;60.70;;;;;;5058165;28;20817;-92
2021/03/31 08:37:27;;;;;;;12.47;6.97;;;19.40;60.20;;;;;;5060008;28;20447;-92
2021/03/31 08:39:59;;;;;;;13.87;8.30;;;20.00;61.50;;;;;;5063935;28;20450;-87
2021/03/31 08:42:27;;;;;;;12.80;8.00;;;20.10;59.50;;;;;;5069783;28;20518;-87
2021/03/31 08:44:56;;;;;;;14.70;7.07;;;;;;;;;;5055645;23;20514;-87
2021/03/31 08:47:25;;;;;;;9.27;7.43;;;20.50;58.70;;;;;;5040029;28;20522;-88
2021/03/31 08:49:58;;;;;;;11.77;7.90;;;21.30;58.40;;;;;;5042478;28;20459;-89
2021/03/31 08:52:25;;;;;;;13.23;7.60;;;21.60;62.40;;;;;;5039447;28;20452;-91
2021/03/31 08:54:53;;;;;;;12.43;7.73;;;22.00;56.50;;;;;;5038326;28;20546;-89
2021/03/31 08:57:21;;;;;;;60.27;13.50;;;22.60;57.10;;;;;;5035203;28;20436;-93
2021/03/31 08:59:50;;;;;;;8.60;7.20;;;23.00;56.00;;;;;;5033251;28;20440;-83
2021/03/31 09:02:20;;;;;;;12.30;7.10;;;23.10;55.70;;;;;;5040347;28;20447;-90
2021/03/31 09:04:46;;;;;;;14.13;7.47;;;;;;;;;;5036914;28;20612;-88
2021/03/31 09:07:14;;;;;;;9.23;7.67;;;23.30;54.50;;;;;;5037292;28;20456;-92
2021/03/31 09:09:43;;;;;;;8.00;6.90;;;23.80;52.90;;;;;;5030507;28;20448;-90
2021/03/31 09:12:11;;;;;;;12.37;7.90;;;23.70;62.00;;;;;;5029338;28;20761;-92
2021/03/31 09:14:39;;;;;;;10.40;7.30;;;24.20;59.50;;;;;;5012939;28;20510;-93
2021/03/31 09:17:09;;;;;;;10.60;7.47;;;24.50;49.10;;;;;;5015387;28;20453;-95
2021/03/31 09:19:37;;;;;;;10.47;7.00;;;25.10;48.40;;;;;;5016727;28;20530;-94
2021/03/31 09:22:08;;;;;;;9.47;6.70;;;25.50;57.80;;;;;;5014592;28;20448;-94
2021/03/31 09:24:35;;;;;;;8.87;7.17;;;;;;;;;;5013021;28;20523;-94
2021/03/31 09:27:04;;;;;;;8.83;6.97;;;25.20;48.30;;;;;;5015459;28;20546;-91
2021/03/31 09:29:31;;;;;;;7.07;6.40;;;25.10;45.90;;;;;;5017076;28;20462;-91
2021/03/31 09:32:01;;;;;;;10.67;7.60;;;25.20;66.60;;;;;;5007230;28;20452;-92
2021/03/31 09:34:28;;;;;;;13.13;7.30;;;25.40;69.80;;;;;;5037688;28;20934;-91
2021/03/31 09:37:02;;;;;;;11.20;7.60;;;25.80;49.20;;;;;;5038130;28;20501;-91
2021/03/31 09:39:44;;;;;;;10.93;7.00;;;26.10;64.00;;;;;;5037550;28;20520;-91
2021/03/31 09:42:18;;;;;;;9.10;6.10;;;26.50;71.90;;;;;;5028820;28;20441;-91
2021/03/31 09:44:44;;;;;;;11.37;7.43;;;;;;;;;;5025406;28;20522;-91
2021/03/31 09:47:14;;;;;;;10.67;6.90;;;;;;;;;;5037524;28;20502;-93
2021/03/31 09:49:59;;;;;;;9.73;7.23;;;26.20;47.50;;;;;;5026422;28;20510;-91
2021/03/31 09:52:26;;;;;;;10.53;7.10;;;;;;;;;;5026865;28;20623;-91
2021/03/31 09:54:55;;;;;;;12.30;7.47;;;;;;;;;;5028368;28;20447;-91
2021/03/31 09:57:27;;;;;;;12.33;8.20;;;27.40;48.20;;;;;;5030144;28;20436;-91
2021/03/31 10:00:03;;;;;;;8.97;7.17;;;27.30;47.30;;;;;;5017680;28;20457;-91
2021/03/31 10:02:30;;;;;;;8.80;7.90;;;;;;;;;;5020616;28;20448;-95
2021/03/31 10:05:08;;;;;;;10.57;8.20;;;;;;;;;;5026279;28;20436;-92
2021/03/31 10:07:34;;;;;;;8.30;7.50;;;;;;;;;;5017559;28;20510;-94
2021/03/31 10:10:03;;;;;;;13.30;7.67;;;27.00;67.80;;;;;;5028483;28;20455;-90
2021/03/31 10:12:34;;;;;;;8.20;7.40;;;27.00;67.20;;;;;;5018591;28;20599;-94
2021/03/31 10:15:10;;;;;;;9.63;7.17;;;26.40;46.90;;;;;;5022421;28;20862;-92
2021/03/31 10:17:36;;;;;;;11.60;8.20;;;27.50;61.50;;;;;;5026622;28;20472;-94
2021/03/31 10:20:13;;;;;;;8.10;7.30;;;26.60;45.80;;;;;;5022000;28;20471;-91
2021/03/31 10:22:41;;;;;;;8.63;7.13;;;27.70;47.60;;;;;;5023759;28;20440;-91
2021/03/31 10:25:22;;;;;;;9.50;7.10;;;28.00;61.00;;;;;;5035550;28;21034;-92
2021/03/31 10:27:48;;;;;;;9.13;7.30;;;28.10;44.30;;;;;;5037788;28;20447;-92
2021/03/31 10:30:24;;;;;;;8.00;6.97;;;27.60;62.30;;;;;;5030079;28;20448;-94
2021/03/31 10:32:51;;;;;;;10.30;7.37;;;27.60;44.50;;;;;;5017488;28;20458;-92
2021/03/31 10:35:42;;;;;;;8.50;7.40;;;26.80;44.10;;;;;;5016982;28;20444;-93
2021/03/31 10:38:16;;;;;;;8.33;7.07;;;26.70;46.10;;;;;;5016567;28;20495;-91
2021/03/31 10:41:06;;;;;;;11.30;7.60;;;27.20;43.90;;;;;;5014231;28;20474;-91
2021/03/31 10:49:28;;;;;;;11.20;7.03;;;27.60;58.00;;;;;;5016935;28;20412;-91
2021/03/31 10:51:58;;;;;;;8.43;6.70;;;28.00;46.10;;;;;;5016564;28;20518;-94
2021/03/31 10:54:26;;;;;;;8.07;7.23;;;27.70;62.90;;;;;;5018307;28;20487;-94
2021/03/31 10:56:54;;;;;;;9.73;8.63;;;27.70;53.50;;;;;;5019886;28;20859;-92
2021/03/31 10:59:20;;;;;;;9.70;8.20;;;27.60;45.20;;;;;;5011031;28;20883;-92
2021/03/31 11:01:47;;;;;;;9.13;8.10;;;28.00;45.10;;;;;;5018532;28;20839;-92
2021/03/31 11:04:13;;;;;;;14.73;8.77;;;27.60;45.20;;;;;;5019827;28;20859;-93
2021/03/31 11:06:40;;;;;;;11.83;8.60;;;28.00;67.20;;;;;;5018539;28;20459;-94
2021/03/31 11:09:07;;;;;;;14.33;7.87;;;28.10;48.00;;;;;;5018554;28;20452;-93
2021/03/31 11:11:34;;;;;;;10.87;8.13;;;26.60;62.60;;;;;;5016088;28;20440;-92
2021/03/31 11:14:00;;;;;;;12.10;7.17;;;27.20;67.10;;;;;;5016934;28;20445;-88
2021/03/31 11:16:27;;;;;;;9.40;7.97;;;27.40;66.30;;;;;;5021414;28;20456;-87
2021/03/31 11:27:27;;;;;;;13.00;9.03;;;;;;;;;;5038729;28;20442;-89
2021/03/31 11:29:53;;;;;;;11.03;9.90;;;27.30;60.70;;;;;;5044972;28;20776;-84
2021/03/31 11:32:19;;;;;;;10.23;9.13;;;;;;;;;;5045959;28;20447;-89
2021/03/31 11:34:46;;;;;;;10.43;8.90;;;;;;;;;;5046870;28;20459;-88
2021/03/31 11:37:13;;;;;;;12.63;9.33;;;26.30;55.00;;;;;;5047298;28;20458;-88
2021/03/31 11:39:39;;;;;;;11.30;10.20;;;26.80;59.40;;;;;;5044683;28;20560;-83
2021/03/31 11:42:06;;;;;;;16.40;10.47;;;;;;;;;;5046707;28;20470;-88
2021/03/31 11:44:33;;;;;;;14.93;10.20;;;26.90;57.10;;;;;;5051064;28;20549;-89
2021/03/31 11:46:59;;;;;;;13.93;10.00;;;;;;;;;;5052153;28;20492;-90
2021/03/31 11:49:25;;;;;;;15.50;12.27;;;26.80;65.30;;;;;;5052263;28;20512;-89
2021/03/31 11:51:52;;;;;;;15.97;10.43;;;26.50;66.20;;;;;;5051931;28;20451;-91
2021/03/31 11:54:19;;;;;;;17.20;10.20;;;26.40;45.60;;;;;;5052822;28;20507;-90
2021/03/31 11:56:50;;;;;;;11.17;9.37;;;;;;;;;;5056038;28;20916;-94
2021/03/31 11:59:16;;;;;;;17.60;8.80;;;27.40;64.70;;;;;;5132277;27;20450;-88
2021/03/31 12:01:42;;;;;;;12.53;9.90;;;27.20;60.70;;;;;;5136847;28;20999;-90
2021/03/31 12:04:10;;;;;;;16.00;11.60;;;;;;;;;;5134656;27;20447;-94
2021/03/31 12:06:37;;;;;;;14.03;9.23;;;;;;;;;;5141226;28;20444;-92
2021/03/31 12:09:06;;;;;;;12.13;9.80;;;;;;;;;;5138694;27;20474;-93
2021/03/31 12:11:44;;;;;;;23.23;10.67;;;27.20;46.20;;;;;;5122160;22;20482;-95
2021/03/31 12:14:30;;;;;;;13.80;10.57;;;27.30;43.20;;;;;;5071271;28;20494;-93
2021/03/31 12:16:57;;;;;;;14.87;10.80;;;;;;;;;;5072827;28;20457;-94
2021/03/31 12:19:53;;;;;;;13.10;10.80;;;27.30;47.70;;;;;;5075551;28;20450;-93
2021/03/31 12:22:20;;;;;;;19.00;11.53;;;;;;;;;;5031504;28;20541;-92
2021/03/31 12:24:47;;;;;;;16.10;11.43;;;;;;;;;;5056413;28;20455;-94
2021/03/31 12:27:20;;;;;;;13.70;11.13;;;27.90;45.20;;;;;;5053910;28;20455;-92
2021/03/31 12:29:46;;;;;;;16.40;10.77;;;;;;;;;;5051770;28;20485;-94
2021/03/31 12:32:36;;;;;;;13.60;10.90;;;27.60;42.90;;;;;;5006593;28;20861;-93
2021/03/31 12:35:08;;;;;;;17.10;10.67;;;27.60;42.90;;;;;;5053041;28;20470;-93
2021/03/31 12:37:35;;;;;;;11.93;9.77;;;28.40;44.20;;;;;;5001584;28;20481;-93
2021/03/31 12:40:02;;;;;;;14.17;10.10;;;;;;;;;;5023417;22;20513;-92
2021/03/31 12:42:30;;;;;;;13.50;10.30;;;28.50;48.20;;;;;;5051165;28;20560;-93
2021/03/31 12:45:03;;;;;;;11.70;10.27;;;27.90;41.30;;;;;;5046420;22;20564;-93
2021/03/31 12:47:51;;;;;;;13.67;10.10;;;27.70;41.80;;;;;;5023197;28;20500;-93
2021/03/31 12:50:27;;;;;;;11.80;10.17;;;28.00;41.10;;;;;;5024257;28;20452;-91
2021/03/31 12:52:57;;;;;;;12.80;10.73;;;;;;;;;;4977470;28;20617;-93
2021/03/31 12:55:28;;;;;;;15.70;11.27;;;27.20;44.70;;;;;;5022771;28;20864;-93
2021/03/31 12:58:18;;;;;;;12.00;9.80;;;;;;;;;;5030072;28;20455;-95
2021/03/31 13:00:52;;;;;;;13.70;10.40;;;;;;;;;;5030482;28;20476;-94
2021/03/31 13:03:19;;;;;;;12.00;10.70;;;;;;;;;;5036052;28;20910;-94
2021/03/31 13:05:46;;;;;;;13.57;10.27;;;;;;;;;;5030490;28;20456;-94
2021/03/31 13:08:16;;;;;;;17.90;10.73;;;;;;;;;;5026570;28;20445;-93
2021/03/31 13:10:46;;;;;;;12.83;9.57;;;;;;;;;;5025410;28;20465;-93
2021/03/31 13:13:19;;;;;;;19.63;10.77;;;;;;;;;;5026555;28;20453;-92
2021/03/31 13:15:56;;;;;;;16.13;10.50;;;;;;;;;;5023340;28;20465;-93
2021/03/31 13:24:19;;;;;;;11.13;10.00;;;;;;;;;;5026909;28;20439;-94
2021/03/31 13:26:58;;;;;;;17.77;10.80;;;;;;;;;;5022440;28;20445;-93
2021/03/31 13:32:31;;;;;;;19.13;10.70;;;;;;;;;;4982145;28;20441;-93
2021/03/31 13:35:02;;;;;;;11.40;9.80;;;;;;;;;;4979598;28;20509;-92
2021/03/31 13:37:36;;;;;;;14.03;11.10;;;;;;;;;;4983577;28;20450;-92
2021/03/31 13:40:10;;;;;;;11.67;9.73;;;28.50;40.50;;;;;;4975689;28;20511;-94
2021/03/31 13:42:37;;;;;;;12.50;10.03;;;;;;;;;;5023252;28;20913;-94
2021/03/31 13:45:24;;;;;;;13.03;10.97;;;28.70;41.10;;;;;;5023712;28;20476;-94
2021/03/31 13:50:32;;;;;;;15.40;11.20;;;;;;;;;;5070429;28;20485;-93
2021/03/31 13:53:18;;;;;;;12.00;10.00;;;;;;;;;;5075554;28;20442;-95
2021/03/31 13:58:52;;;;;;;14.33;10.20;;;;;;;;;;5111166;28;20458;-94
2021/03/31 14:01:20;;;;;;;10.53;9.33;;;;;;;;;;5108314;28;20488;-94